Accueil
METAR-TAF:

METAR-TAF

Aéroports :

Srinagar, Inde

latitude: 33-59-14N, longitude: 074-46-27E, altitude: 1655 m

METAR: absent

Heure: 19:44 (14:14 UTC)

Prévision

Le bulletin a été fait il y a 10 heures et 44 minutes, à 03:30 UTC
Prévision valable du 29 à 06 UTC au 29 à 18 UTC
Vent 5 kt de ouest/sud-ouest
Visibilité: 4000 m
Nuages épars à une hauteur de 2000 ft
Nuages fragmentés à une hauteur de 8000 ft
Nuages épars à une hauteur de 1500 ft
Nuages fragmentés à une hauteur de 9000 ft
pluie, brume
Temporairement
du 29 à 08 UTC au 29 à 12 UTC
Vent 10 kt de ouest/nord-ouest
Visibilité: 4000 m
Nuages épars à une hauteur de 1000 ft
Nuages fragmentés à une hauteur de 9000 ft
orage, pluie

TAF: VISR 290330Z 2906/2918 24005KT 4000 SCT020 BKN080 RABR SCT015 BKN090 TEMPO 2908/2912 29010KT 4000 TSRA SCT010 BKN090

Observations et prévisions météorologiques de plus de 4000 aéroports (messages METAR et TAF).

Les stations disponibles sont représentées par des disques jaunes et rouges sur la carte.

Passer la souris dessus pour voir le nom de la station.

Cliquer dessus pour voir les observations et prévisions météorologiques.

Pour changer de carte: cliquez sur les boutons verts avec une croix noire pour zoomer, sur le bouton vert avec un tiret pour effectuer un zoom arrière, ou sur les flèches vertes pour les cartes adjacentes.


METAR-TAF: